createdAt,value
2023-04-19T00:04:09.842Z,101242.56
2023-04-19T00:09:16.363Z,101232.16
2023-04-19T00:14:22.723Z,101229.53
2023-04-19T00:19:30.396Z,101218.28
2023-04-19T00:24:36.582Z,101225.28
2023-04-19T00:29:44.776Z,101223.50
2023-04-19T00:34:52.571Z,101218.28
2023-04-19T00:39:58.757Z,101214.03
2023-04-19T00:45:06.566Z,101213.94
2023-04-19T00:50:15.275Z,101199.25
2023-04-19T00:55:21.851Z,101190.72
2023-04-19T01:00:29.954Z,101198.47
2023-04-19T01:05:38.291Z,101186.38
2023-04-19T01:10:44.709Z,101183.00
2023-04-19T01:15:51.944Z,101176.06
2023-04-19T01:21:01.427Z,101166.59
2023-04-19T01:26:09.197Z,101161.41
2023-04-19T01:31:15.726Z,101157.09
2023-04-19T01:36:22.170Z,101147.59
2023-04-19T01:41:32.252Z,101143.25
2023-04-19T01:46:39.274Z,101138.09
2023-04-19T01:51:45.951Z,101140.66
2023-04-19T01:56:53.915Z,101134.63
2023-04-19T02:02:00.399Z,101128.53
2023-04-19T02:07:06.900Z,101125.94
2023-04-19T02:12:14.768Z,101116.44
2023-04-19T02:17:23.676Z,101124.16
2023-04-19T02:22:31.202Z,101113.78
2023-04-19T02:27:39.142Z,101119.84
2023-04-19T02:32:45.390Z,101109.50
2023-04-19T02:37:51.639Z,101111.25
2023-04-19T02:42:59.853Z,101107.75
2023-04-19T02:48:06.966Z,101098.25
2023-04-19T02:53:13.301Z,101093.94
2023-04-19T02:58:22.311Z,101090.50
2023-04-19T03:03:43.110Z,101081.88
2023-04-19T03:08:50.006Z,101069.78
2023-04-19T03:13:59.435Z,101062.81
2023-04-19T03:19:06.236Z,101056.78
2023-04-19T03:24:20.838Z,101053.31
2023-04-19T03:29:32.552Z,101049.88
2023-04-19T03:34:48.678Z,101054.22
2023-04-19T03:39:56.242Z,101044.69
2023-04-19T03:45:12.494Z,101036.88
2023-04-19T03:50:24.227Z,101036.91
2023-04-19T03:55:33.674Z,101034.31
2023-04-19T04:00:42.575Z,101039.53
2023-04-19T04:05:49.052Z,101032.66
2023-04-19T04:10:56.926Z,101037.84
2023-04-19T04:16:05.362Z,101029.22
2023-04-19T04:21:13.713Z,101027.47
2023-04-19T04:26:22.306Z,101030.06
2023-04-19T04:31:38.644Z,101028.34
2023-04-19T04:36:45.021Z,101025.78
2023-04-19T04:41:52.286Z,101018.91
2023-04-19T04:47:01.184Z,101022.41
2023-04-19T04:52:13.847Z,101021.50
2023-04-19T04:57:33.252Z,101020.66
2023-04-19T05:02:42.976Z,101017.22
2023-04-19T05:07:51.227Z,101008.56
2023-04-19T05:12:57.914Z,101008.59
2023-04-19T05:18:07.680Z,101002.56
2023-04-19T05:23:16.168Z,100999.97
2023-04-19T05:28:23.516Z,100994.78
2023-04-19T05:33:41.947Z,100995.66
2023-04-19T05:38:49.705Z,100996.50
2023-04-19T05:43:56.661Z,100997.34
2023-04-19T05:49:07.009Z,100996.47
2023-04-19T05:54:36.472Z,100996.50
2023-04-19T05:59:44.804Z,100985.25
2023-04-19T06:04:55.261Z,100983.53
2023-04-19T06:10:03.450Z,100978.34
2023-04-19T06:15:12.143Z,100978.34
2023-04-19T06:20:20.251Z,100974.06
2023-04-19T06:25:27.047Z,100977.50
2023-04-19T06:30:33.400Z,100974.91
2023-04-19T06:35:41.312Z,100979.22
2023-04-19T06:40:47.549Z,100975.75
2023-04-19T06:46:00.820Z,100979.19
2023-04-19T06:51:08.738Z,100969.66
2023-04-19T06:56:15.340Z,100971.41
2023-04-19T07:01:21.651Z,100973.97
2023-04-19T07:06:30.017Z,100973.94
2023-04-19T07:11:36.914Z,100976.44
2023-04-19T07:16:44.465Z,100972.94
2023-04-19T07:21:53.047Z,100973.78
2023-04-19T07:26:59.542Z,100967.66
2023-04-19T07:32:06.739Z,100968.53
2023-04-19T07:37:14.769Z,100971.97
2023-04-19T07:42:24.249Z,100971.00
2023-04-19T07:47:31.663Z,100965.75
2023-04-19T07:52:39.323Z,100960.47
2023-04-19T07:57:48.628Z,100954.34
2023-04-19T08:02:55.195Z,100949.94
2023-04-19T08:08:03.244Z,100955.00
2023-04-19T08:13:09.629Z,100954.94
2023-04-19T08:18:16.243Z,100956.75
2023-04-19T08:23:29.755Z,100957.56
2023-04-19T08:28:44.267Z,100950.59
2023-04-19T08:33:50.693Z,100959.19
2023-04-19T08:39:06.630Z,100949.66
2023-04-19T08:44:36.081Z,100954.75
2023-04-19T08:49:43.937Z,100959.13
2023-04-19T08:54:52.810Z,100951.22
2023-04-19T08:59:59.420Z,100952.63
2023-04-19T09:05:08.006Z,100955.69
2023-04-19T09:10:18.127Z,100943.38
2023-04-19T09:15:40.083Z,100938.84
2023-04-19T09:20:48.167Z,100934.31
2023-04-19T09:26:22.181Z,100944.69
2023-04-19T09:31:43.276Z,100945.41
2023-04-19T09:37:04.364Z,100948.91
2023-04-19T09:42:36.025Z,100943.50
2023-04-19T09:47:46.978Z,100951.19
2023-04-19T09:52:54.465Z,100949.28
2023-04-19T09:58:02.138Z,100948.38
2023-04-19T10:03:11.116Z,100953.56
2023-04-19T10:08:19.038Z,100947.69
2023-04-19T10:13:27.781Z,100942.47
2023-04-19T10:18:35.730Z,100954.56
2023-04-19T10:23:42.388Z,100957.16
2023-04-19T10:28:50.870Z,100962.34
2023-04-19T10:33:58.010Z,100951.78
2023-04-19T10:39:05.325Z,100946.38
2023-04-19T10:44:14.175Z,100954.00
2023-04-19T10:49:25.014Z,100958.38
2023-04-19T10:54:33.662Z,100964.44
2023-04-19T10:59:44.671Z,100966.34
2023-04-19T11:05:14.289Z,100973.22
2023-04-19T11:10:32.081Z,100972.50
2023-04-19T11:15:45.704Z,100981.19
2023-04-19T11:20:56.127Z,100984.69
2023-04-19T11:26:02.559Z,100983.03
2023-04-19T11:31:10.437Z,100989.00
2023-04-19T11:36:17.016Z,100989.88
2023-04-19T11:41:23.560Z,100991.47
2023-04-19T11:46:31.385Z,100987.13
2023-04-19T11:51:37.822Z,100992.28
2023-04-19T11:57:04.075Z,100986.13
2023-04-19T12:02:14.356Z,100986.81
2023-04-19T12:07:20.847Z,100986.56
2023-04-19T12:12:44.603Z,100986.28
2023-04-19T12:18:03.998Z,100982.69
2023-04-19T12:23:11.553Z,100988.78
2023-04-19T12:28:18.597Z,100981.59
2023-04-19T12:33:26.819Z,100981.66
2023-04-19T12:38:33.447Z,100982.44
2023-04-19T12:43:39.923Z,100983.88
2023-04-19T12:48:47.847Z,100992.28
2023-04-19T12:53:55.966Z,100994.72
2023-04-19T12:59:02.373Z,100998.97
2023-04-19T13:04:12.212Z,101004.03
2023-04-19T13:09:18.790Z,101003.47
2023-04-19T13:14:25.324Z,101002.47
2023-04-19T13:19:33.394Z,101006.09
2023-04-19T13:24:40.239Z,101005.13
2023-04-19T13:29:47.281Z,101002.56
2023-04-19T13:34:55.206Z,101003.53
2023-04-19T13:40:14.868Z,101006.88
2023-04-19T13:45:26.125Z,101005.91
2023-04-19T13:50:33.842Z,101009.28
2023-04-19T13:55:40.274Z,100993.47
2023-04-19T14:00:48.581Z,100991.59
2023-04-19T14:05:57.045Z,100974.06
2023-04-19T14:11:03.449Z,100981.88
2023-04-19T14:16:11.494Z,100976.50
2023-04-19T14:21:19.653Z,100984.97
2023-04-19T14:26:27.509Z,100989.22
2023-04-19T14:31:34.747Z,100984.75
2023-04-19T14:36:43.159Z,100982.13
2023-04-19T14:41:49.660Z,100986.34
2023-04-19T14:46:56.311Z,100989.75
2023-04-19T14:52:05.343Z,100989.53
2023-04-19T14:57:12.380Z,100988.53
2023-04-19T15:02:18.952Z,100987.72
2023-04-19T15:07:27.060Z,100982.53
2023-04-19T15:12:33.498Z,100983.53
2023-04-19T15:17:40.273Z,100991.44
2023-04-19T15:22:48.433Z,100990.41
2023-04-19T15:27:54.778Z,100993.78
2023-04-19T15:33:01.758Z,100981.25
2023-04-19T15:38:09.560Z,100987.06
2023-04-19T15:43:15.708Z,100984.03
2023-04-19T15:48:22.550Z,100985.63
2023-04-19T15:53:30.723Z,100995.19
2023-04-19T15:58:37.168Z,100990.81
2023-04-19T16:03:44.126Z,100998.81
2023-04-19T16:08:52.494Z,101023.34
2023-04-19T16:13:58.913Z,101044.13
2023-04-19T16:19:06.723Z,101045.53
2023-04-19T16:24:22.044Z,101066.16
2023-04-19T16:29:34.675Z,101073.00
2023-04-19T16:34:46.155Z,101074.00
2023-04-19T16:39:54.403Z,101058.00
2023-04-19T16:45:01.569Z,101053.69
2023-04-19T16:50:10.691Z,101030.97
2023-04-19T16:55:19.133Z,101044.16
2023-04-19T17:00:26.614Z,101050.63
2023-04-19T17:05:33.679Z,101060.34
2023-04-19T17:10:41.767Z,101055.91
2023-04-19T17:15:48.743Z,101065.66
2023-04-19T17:20:56.612Z,101075.38
2023-04-19T17:26:05.950Z,101089.41
2023-04-19T17:31:14.288Z,101093.72
2023-04-19T17:36:21.328Z,101095.63
2023-04-19T17:41:29.947Z,101102.66
2023-04-19T17:46:38.027Z,101106.09
2023-04-19T17:51:46.810Z,101107.94
2023-04-19T17:57:00.191Z,101108.81
2023-04-19T18:02:10.235Z,101110.47
2023-04-19T18:07:19.060Z,101112.22
2023-04-19T18:12:31.327Z,101111.31
2023-04-19T18:17:41.988Z,101125.28
2023-04-19T18:22:54.976Z,101128.84
2023-04-19T18:28:06.267Z,101131.47
2023-04-19T18:33:14.465Z,101145.34
2023-04-19T18:38:24.112Z,101136.09
2023-04-19T18:43:36.141Z,101146.53
2023-04-19T18:48:48.348Z,101140.69
2023-04-19T18:53:57.708Z,101151.13
2023-04-19T18:59:09.728Z,101155.47
2023-04-19T19:04:46.776Z,101152.06
2023-04-19T19:09:57.821Z,101152.84
2023-04-19T19:15:16.486Z,101148.50
2023-04-19T19:20:25.595Z,101161.91
2023-04-19T19:25:35.180Z,101161.81
2023-04-19T19:30:46.119Z,101157.44
2023-04-19T19:35:55.306Z,101171.38
2023-04-19T19:46:17.681Z,101177.50
2023-04-19T19:51:44.119Z,101189.63
2023-04-19T20:02:08.562Z,101173.03
2023-04-19T20:12:28.125Z,101185.22
2023-04-19T20:17:37.985Z,101173.88
2023-04-19T20:22:53.080Z,101178.19
2023-04-19T20:28:02.499Z,101172.13
2023-04-19T20:33:12.823Z,101173.88
2023-04-19T20:38:24.441Z,101174.84
2023-04-19T20:43:35.555Z,101174.84
2023-04-19T20:48:46.010Z,101172.22
2023-04-19T20:53:54.744Z,101161.78
2023-04-19T20:59:02.365Z,101164.34
2023-04-19T21:04:10.471Z,101167.78
2023-04-19T21:09:17.397Z,101153.91
2023-04-19T21:14:24.285Z,101165.19
2023-04-19T21:19:32.709Z,101158.25
2023-04-19T21:24:39.447Z,101162.69
2023-04-19T21:29:45.986Z,101166.19
2023-04-19T21:34:54.198Z,101158.34
2023-04-19T21:40:00.730Z,101171.44
2023-04-19T21:45:08.687Z,101171.41
2023-04-19T21:50:16.714Z,101180.03
2023-04-19T21:55:23.698Z,101179.19
2023-04-19T22:00:30.691Z,101167.94
2023-04-19T22:05:41.410Z,101171.41
2023-04-19T22:10:47.621Z,101176.53
2023-04-19T22:15:55.491Z,101182.63
2023-04-19T22:21:03.740Z,101178.34
2023-04-19T22:26:10.100Z,101186.09
2023-04-19T22:31:16.552Z,101184.34
2023-04-19T22:36:24.185Z,101183.47
2023-04-19T22:41:30.460Z,101183.47
2023-04-19T22:46:37.787Z,101180.84
2023-04-19T22:51:46.257Z,101178.22
2023-04-19T22:56:52.696Z,101185.13
2023-04-19T23:01:59.146Z,101185.97
2023-04-19T23:07:07.385Z,101182.50
2023-04-19T23:12:16.118Z,101179.91
2023-04-19T23:17:22.530Z,101172.94
2023-04-19T23:22:30.382Z,101182.50
2023-04-19T23:27:37.541Z,101172.97
2023-04-19T23:32:44.036Z,101171.31
2023-04-19T23:37:51.797Z,101170.50
2023-04-19T23:42:58.341Z,101181.72
2023-04-19T23:48:04.780Z,101170.53
2023-04-19T23:53:12.564Z,101161.00
2023-04-19T23:58:19.336Z,101163.59
